sensor_id;sensor_type;location;lat;lon;timestamp;P1;durP1;ratioP1;P2;durP2;ratioP2
20480;SDS011;10399;50.754;3.366;2024-03-02T00:01:39;0.30;;;0.30;;
20480;SDS011;10399;50.754;3.366;2024-03-02T00:04:08;0.20;;;0.20;;
20480;SDS011;10399;50.754;3.366;2024-03-02T00:06:35;0.20;;;0.20;;
20480;SDS011;10399;50.754;3.366;2024-03-02T00:09:04;0.20;;;0.20;;
20480;SDS011;10399;50.754;3.366;2024-03-02T00:11:34;0.20;;;0.20;;
20480;SDS011;10399;50.754;3.366;2024-03-02T00:14:02;0.20;;;0.20;;
20480;SDS011;10399;50.754;3.366;2024-03-02T00:16:30;0.20;;;0.20;;
20480;SDS011;10399;50.754;3.366;2024-03-02T00:19:02;0.20;;;0.20;;
20480;SDS011;10399;50.754;3.366;2024-03-02T00:21:30;0.20;;;0.20;;
20480;SDS011;10399;50.754;3.366;2024-03-02T00:23:59;0.30;;;0.30;;
20480;SDS011;10399;50.754;3.366;2024-03-02T00:26:29;0.20;;;0.20;;
20480;SDS011;10399;50.754;3.366;2024-03-02T00:28:56;0.30;;;0.30;;
20480;SDS011;10399;50.754;3.366;2024-03-02T00:31:23;0.20;;;0.20;;
20480;SDS011;10399;50.754;3.366;2024-03-02T00:33:51;0.20;;;0.20;;
20480;SDS011;10399;50.754;3.366;2024-03-02T00:36:24;0.20;;;0.20;;
20480;SDS011;10399;50.754;3.366;2024-03-02T00:38:55;0.20;;;0.20;;
20480;SDS011;10399;50.754;3.366;2024-03-02T00:41:24;0.20;;;0.20;;
20480;SDS011;10399;50.754;3.366;2024-03-02T00:44:06;0.38;;;0.38;;
20480;SDS011;10399;50.754;3.366;2024-03-02T00:46:36;0.30;;;0.30;;
20480;SDS011;10399;50.754;3.366;2024-03-02T00:51:37;0.30;;;0.30;;
20480;SDS011;10399;50.754;3.366;2024-03-02T00:54:08;0.30;;;0.30;;
20480;SDS011;10399;50.754;3.366;2024-03-02T00:56:43;0.20;;;0.20;;
20480;SDS011;10399;50.754;3.366;2024-03-02T00:59:11;1.30;;;1.02;;
20480;SDS011;10399;50.754;3.366;2024-03-02T01:01:39;0.30;;;0.30;;
20480;SDS011;10399;50.754;3.366;2024-03-02T01:04:06;0.22;;;0.22;;
20480;SDS011;10399;50.754;3.366;2024-03-02T01:06:33;0.30;;;0.30;;
20480;SDS011;10399;50.754;3.366;2024-03-02T01:09:01;0.30;;;0.30;;
20480;SDS011;10399;50.754;3.366;2024-03-02T01:11:29;0.82;;;0.82;;
20480;SDS011;10399;50.754;3.366;2024-03-02T01:13:58;0.40;;;0.40;;
20480;SDS011;10399;50.754;3.366;2024-03-02T01:16:26;0.20;;;0.20;;
20480;SDS011;10399;50.754;3.366;2024-03-02T01:18:55;0.30;;;0.30;;
20480;SDS011;10399;50.754;3.366;2024-03-02T01:21:25;0.20;;;0.20;;
20480;SDS011;10399;50.754;3.366;2024-03-02T01:23:55;0.30;;;0.30;;
20480;SDS011;10399;50.754;3.366;2024-03-02T01:26:23;0.40;;;0.40;;
20480;SDS011;10399;50.754;3.366;2024-03-02T01:28:52;0.25;;;0.25;;
20480;SDS011;10399;50.754;3.366;2024-03-02T01:31:21;0.30;;;0.30;;
20480;SDS011;10399;50.754;3.366;2024-03-02T01:33:49;0.20;;;0.20;;
20480;SDS011;10399;50.754;3.366;2024-03-02T01:36:16;0.30;;;0.30;;
20480;SDS011;10399;50.754;3.366;2024-03-02T01:38:44;0.30;;;0.30;;
20480;SDS011;10399;50.754;3.366;2024-03-02T01:41:13;0.20;;;0.20;;
20480;SDS011;10399;50.754;3.366;2024-03-02T01:43:40;0.20;;;0.20;;
20480;SDS011;10399;50.754;3.366;2024-03-02T01:46:09;0.30;;;0.30;;
20480;SDS011;10399;50.754;3.366;2024-03-02T01:48:38;0.30;;;0.30;;
20480;SDS011;10399;50.754;3.366;2024-03-02T01:51:07;0.60;;;0.60;;
20480;SDS011;10399;50.754;3.366;2024-03-02T01:53:34;0.20;;;0.20;;
20480;SDS011;10399;50.754;3.366;2024-03-02T01:56:08;0.30;;;0.30;;
20480;SDS011;10399;50.754;3.366;2024-03-02T01:58:35;0.47;;;0.47;;
20480;SDS011;10399;50.754;3.366;2024-03-02T02:01:03;0.30;;;0.30;;
20480;SDS011;10399;50.754;3.366;2024-03-02T02:03:33;0.30;;;0.30;;
20480;SDS011;10399;50.754;3.366;2024-03-02T02:06:00;0.20;;;0.20;;
20480;SDS011;10399;50.754;3.366;2024-03-02T02:08:29;0.20;;;0.20;;
20480;SDS011;10399;50.754;3.366;2024-03-02T02:10:58;0.20;;;0.20;;
20480;SDS011;10399;50.754;3.366;2024-03-02T02:13:27;0.47;;;0.47;;
20480;SDS011;10399;50.754;3.366;2024-03-02T02:15:54;0.20;;;0.20;;
20480;SDS011;10399;50.754;3.366;2024-03-02T02:18:23;0.40;;;0.40;;
20480;SDS011;10399;50.754;3.366;2024-03-02T02:20:51;1.70;;;0.70;;
20480;SDS011;10399;50.754;3.366;2024-03-02T02:23:19;4.40;;;2.05;;
20480;SDS011;10399;50.754;3.366;2024-03-02T02:25:48;5.07;;;1.85;;
20480;SDS011;10399;50.754;3.366;2024-03-02T02:28:18;5.85;;;1.98;;
20480;SDS011;10399;50.754;3.366;2024-03-02T02:30:46;9.93;;;1.77;;
20480;SDS011;10399;50.754;3.366;2024-03-02T02:33:13;10.45;;;2.17;;
20480;SDS011;10399;50.754;3.366;2024-03-02T02:35:40;4.30;;;1.98;;
20480;SDS011;10399;50.754;3.366;2024-03-02T02:38:07;4.45;;;1.98;;
20480;SDS011;10399;50.754;3.366;2024-03-02T02:40:34;6.82;;;2.15;;
20480;SDS011;10399;50.754;3.366;2024-03-02T02:43:01;4.25;;;1.85;;
20480;SDS011;10399;50.754;3.366;2024-03-02T02:45:29;4.07;;;2.30;;
20480;SDS011;10399;50.754;3.366;2024-03-02T02:47:57;3.45;;;2.20;;
20480;SDS011;10399;50.754;3.366;2024-03-02T02:50:24;8.77;;;2.42;;
20480;SDS011;10399;50.754;3.366;2024-03-02T02:52:51;4.68;;;1.92;;
20480;SDS011;10399;50.754;3.366;2024-03-02T02:55:18;4.40;;;2.15;;
20480;SDS011;10399;50.754;3.366;2024-03-02T02:57:45;6.70;;;2.40;;
20480;SDS011;10399;50.754;3.366;2024-03-02T03:00:13;6.13;;;2.20;;
20480;SDS011;10399;50.754;3.366;2024-03-02T03:02:47;5.57;;;2.50;;
20480;SDS011;10399;50.754;3.366;2024-03-02T03:05:17;7.00;;;2.10;;
20480;SDS011;10399;50.754;3.366;2024-03-02T03:07:45;3.05;;;2.33;;
20480;SDS011;10399;50.754;3.366;2024-03-02T03:10:12;6.13;;;2.00;;
20480;SDS011;10399;50.754;3.366;2024-03-02T03:12:41;6.72;;;1.90;;
20480;SDS011;10399;50.754;3.366;2024-03-02T03:15:10;7.97;;;2.38;;
20480;SDS011;10399;50.754;3.366;2024-03-02T03:17:40;5.63;;;2.00;;
20480;SDS011;10399;50.754;3.366;2024-03-02T03:20:08;5.55;;;1.73;;
20480;SDS011;10399;50.754;3.366;2024-03-02T03:22:42;5.05;;;1.80;;
20480;SDS011;10399;50.754;3.366;2024-03-02T03:25:09;2.72;;;1.92;;
20480;SDS011;10399;50.754;3.366;2024-03-02T03:27:36;5.65;;;1.92;;
20480;SDS011;10399;50.754;3.366;2024-03-02T03:30:03;7.63;;;2.30;;
20480;SDS011;10399;50.754;3.366;2024-03-02T03:32:32;5.07;;;2.30;;
20480;SDS011;10399;50.754;3.366;2024-03-02T03:35:00;3.72;;;1.75;;
20480;SDS011;10399;50.754;3.366;2024-03-02T03:37:27;4.80;;;2.00;;
20480;SDS011;10399;50.754;3.366;2024-03-02T03:40:00;9.10;;;1.90;;
20480;SDS011;10399;50.754;3.366;2024-03-02T03:42:39;4.93;;;1.83;;
20480;SDS011;10399;50.754;3.366;2024-03-02T03:45:07;7.32;;;2.03;;
20480;SDS011;10399;50.754;3.366;2024-03-02T03:47:35;12.73;;;2.20;;
20480;SDS011;10399;50.754;3.366;2024-03-02T03:50:02;3.75;;;1.75;;
20480;SDS011;10399;50.754;3.366;2024-03-02T03:52:33;4.60;;;2.10;;
20480;SDS011;10399;50.754;3.366;2024-03-02T03:55:00;7.82;;;2.05;;
20480;SDS011;10399;50.754;3.366;2024-03-02T03:57:27;8.60;;;1.90;;
20480;SDS011;10399;50.754;3.366;2024-03-02T03:59:54;7.20;;;2.20;;
20480;SDS011;10399;50.754;3.366;2024-03-02T04:02:21;5.75;;;2.10;;
20480;SDS011;10399;50.754;3.366;2024-03-02T04:04:48;7.90;;;1.90;;
20480;SDS011;10399;50.754;3.366;2024-03-02T04:07:15;13.48;;;1.90;;
20480;SDS011;10399;50.754;3.366;2024-03-02T04:09:42;5.68;;;2.17;;
20480;SDS011;10399;50.754;3.366;2024-03-02T04:12:09;5.28;;;2.05;;
20480;SDS011;10399;50.754;3.366;2024-03-02T04:14:36;5.90;;;1.90;;
20480;SDS011;10399;50.754;3.366;2024-03-02T04:17:04;9.10;;;2.22;;
20480;SDS011;10399;50.754;3.366;2024-03-02T04:19:31;7.88;;;1.90;;
20480;SDS011;10399;50.754;3.366;2024-03-02T04:21:58;12.45;;;2.42;;
20480;SDS011;10399;50.754;3.366;2024-03-02T04:24:34;4.07;;;1.70;;
20480;SDS011;10399;50.754;3.366;2024-03-02T04:27:01;8.63;;;2.00;;
20480;SDS011;10399;50.754;3.366;2024-03-02T04:29:28;9.10;;;2.05;;
20480;SDS011;10399;50.754;3.366;2024-03-02T04:31:56;9.50;;;2.13;;
20480;SDS011;10399;50.754;3.366;2024-03-02T04:34:23;5.28;;;1.92;;
20480;SDS011;10399;50.754;3.366;2024-03-02T04:36:50;8.73;;;2.30;;
20480;SDS011;10399;50.754;3.366;2024-03-02T04:39:19;3.95;;;1.80;;
20480;SDS011;10399;50.754;3.366;2024-03-02T04:41:46;5.43;;;2.88;;
20480;SDS011;10399;50.754;3.366;2024-03-02T04:44:15;5.93;;;2.15;;
20480;SDS011;10399;50.754;3.366;2024-03-02T04:46:42;6.68;;;1.95;;
20480;SDS011;10399;50.754;3.366;2024-03-02T04:49:11;4.75;;;1.90;;
20480;SDS011;10399;50.754;3.366;2024-03-02T04:51:38;8.05;;;2.03;;
20480;SDS011;10399;50.754;3.366;2024-03-02T04:54:05;4.22;;;1.73;;
20480;SDS011;10399;50.754;3.366;2024-03-02T04:56:32;5.88;;;1.48;;
20480;SDS011;10399;50.754;3.366;2024-03-02T04:59:06;4.38;;;1.80;;
20480;SDS011;10399;50.754;3.366;2024-03-02T05:01:33;5.25;;;1.65;;
20480;SDS011;10399;50.754;3.366;2024-03-02T05:04:00;8.25;;;2.13;;
20480;SDS011;10399;50.754;3.366;2024-03-02T05:06:27;3.05;;;1.35;;
20480;SDS011;10399;50.754;3.366;2024-03-02T05:08:54;9.13;;;1.80;;
20480;SDS011;10399;50.754;3.366;2024-03-02T05:11:21;5.60;;;1.40;;
20480;SDS011;10399;50.754;3.366;2024-03-02T05:14:03;7.18;;;1.85;;
20480;SDS011;10399;50.754;3.366;2024-03-02T05:16:34;4.75;;;1.58;;
20480;SDS011;10399;50.754;3.366;2024-03-02T05:19:03;10.00;;;2.33;;
20480;SDS011;10399;50.754;3.366;2024-03-02T05:21:33;4.80;;;1.50;;
20480;SDS011;10399;50.754;3.366;2024-03-02T05:24:00;5.43;;;1.70;;
20480;SDS011;10399;50.754;3.366;2024-03-02T05:26:27;6.80;;;1.88;;
20480;SDS011;10399;50.754;3.366;2024-03-02T05:28:54;6.55;;;1.48;;
20480;SDS011;10399;50.754;3.366;2024-03-02T05:31:22;7.55;;;1.45;;
20480;SDS011;10399;50.754;3.366;2024-03-02T05:33:48;6.10;;;1.95;;
20480;SDS011;10399;50.754;3.366;2024-03-02T05:36:21;7.50;;;1.70;;
20480;SDS011;10399;50.754;3.366;2024-03-02T05:38:48;10.98;;;1.67;;
20480;SDS011;10399;50.754;3.366;2024-03-02T05:41:14;8.23;;;1.90;;
20480;SDS011;10399;50.754;3.366;2024-03-02T05:43:41;4.80;;;1.60;;
20480;SDS011;10399;50.754;3.366;2024-03-02T05:46:09;8.43;;;2.03;;
20480;SDS011;10399;50.754;3.366;2024-03-02T05:48:42;5.00;;;1.52;;
20480;SDS011;10399;50.754;3.366;2024-03-02T05:51:09;7.97;;;1.77;;
20480;SDS011;10399;50.754;3.366;2024-03-02T05:53:35;9.82;;;2.47;;
20480;SDS011;10399;50.754;3.366;2024-03-02T05:56:05;10.60;;;1.73;;
20480;SDS011;10399;50.754;3.366;2024-03-02T05:58:32;6.30;;;1.60;;
20480;SDS011;10399;50.754;3.366;2024-03-02T06:01:26;11.05;;;1.50;;
20480;SDS011;10399;50.754;3.366;2024-03-02T06:03:55;6.13;;;1.40;;
20480;SDS011;10399;50.754;3.366;2024-03-02T06:06:23;5.88;;;1.48;;
20480;SDS011;10399;50.754;3.366;2024-03-02T06:08:50;9.40;;;1.85;;
20480;SDS011;10399;50.754;3.366;2024-03-02T06:11:19;6.88;;;1.65;;
20480;SDS011;10399;50.754;3.366;2024-03-02T06:13:46;5.25;;;1.70;;
20480;SDS011;10399;50.754;3.366;2024-03-02T06:16:12;9.35;;;1.88;;
20480;SDS011;10399;50.754;3.366;2024-03-02T06:18:40;9.10;;;1.80;;
20480;SDS011;10399;50.754;3.366;2024-03-02T06:21:06;5.90;;;1.65;;
20480;SDS011;10399;50.754;3.366;2024-03-02T06:23:34;5.47;;;1.95;;
20480;SDS011;10399;50.754;3.366;2024-03-02T06:26:02;7.93;;;2.00;;
20480;SDS011;10399;50.754;3.366;2024-03-02T06:28:29;12.10;;;2.83;;
20480;SDS011;10399;50.754;3.366;2024-03-02T06:30:56;8.07;;;2.47;;
20480;SDS011;10399;50.754;3.366;2024-03-02T06:33:23;10.68;;;1.98;;
20480;SDS011;10399;50.754;3.366;2024-03-02T06:35:50;10.10;;;2.60;;
20480;SDS011;10399;50.754;3.366;2024-03-02T06:38:17;17.42;;;3.08;;
20480;SDS011;10399;50.754;3.366;2024-03-02T06:40:44;11.35;;;3.08;;
20480;SDS011;10399;50.754;3.366;2024-03-02T06:43:11;13.82;;;3.22;;
20480;SDS011;10399;50.754;3.366;2024-03-02T06:45:37;11.05;;;2.88;;
20480;SDS011;10399;50.754;3.366;2024-03-02T06:48:05;17.45;;;3.83;;
20480;SDS011;10399;50.754;3.366;2024-03-02T06:50:32;13.88;;;3.20;;
20480;SDS011;10399;50.754;3.366;2024-03-02T06:52:59;11.25;;;3.03;;
20480;SDS011;10399;50.754;3.366;2024-03-02T06:55:26;12.48;;;2.83;;
20480;SDS011;10399;50.754;3.366;2024-03-02T06:57:53;12.80;;;2.90;;
20480;SDS011;10399;50.754;3.366;2024-03-02T07:00:20;11.65;;;2.78;;
20480;SDS011;10399;50.754;3.366;2024-03-02T07:02:47;13.68;;;3.08;;
20480;SDS011;10399;50.754;3.366;2024-03-02T07:05:14;13.80;;;3.42;;
20480;SDS011;10399;50.754;3.366;2024-03-02T07:07:41;9.65;;;2.60;;
20480;SDS011;10399;50.754;3.366;2024-03-02T07:10:08;11.95;;;3.20;;
20480;SDS011;10399;50.754;3.366;2024-03-02T07:12:35;12.20;;;3.15;;
20480;SDS011;10399;50.754;3.366;2024-03-02T07:15:05;9.60;;;3.20;;
20480;SDS011;10399;50.754;3.366;2024-03-02T07:17:35;12.07;;;2.72;;
20480;SDS011;10399;50.754;3.366;2024-03-02T07:20:11;13.40;;;3.50;;
20480;SDS011;10399;50.754;3.366;2024-03-02T07:22:46;16.27;;;3.60;;
20480;SDS011;10399;50.754;3.366;2024-03-02T07:25:13;16.80;;;3.70;;
20480;SDS011;10399;50.754;3.366;2024-03-02T07:27:44;12.25;;;2.90;;
20480;SDS011;10399;50.754;3.366;2024-03-02T07:30:14;10.45;;;2.58;;
20480;SDS011;10399;50.754;3.366;2024-03-02T07:33:02;7.78;;;2.50;;
20480;SDS011;10399;50.754;3.366;2024-03-02T07:35:36;13.23;;;2.83;;
20480;SDS011;10399;50.754;3.366;2024-03-02T07:38:08;11.18;;;1.95;;
20480;SDS011;10399;50.754;3.366;2024-03-02T07:41:03;13.85;;;2.67;;
20480;SDS011;10399;50.754;3.366;2024-03-02T07:44:03;12.70;;;3.10;;
20480;SDS011;10399;50.754;3.366;2024-03-02T07:46:31;12.20;;;2.42;;
20480;SDS011;10399;50.754;3.366;2024-03-02T07:48:58;15.20;;;2.50;;
20480;SDS011;10399;50.754;3.366;2024-03-02T07:51:25;10.13;;;2.58;;
20480;SDS011;10399;50.754;3.366;2024-03-02T07:53:52;12.02;;;3.15;;
20480;SDS011;10399;50.754;3.366;2024-03-02T07:56:19;13.98;;;2.28;;
20480;SDS011;10399;50.754;3.366;2024-03-02T07:58:49;11.00;;;2.58;;
20480;SDS011;10399;50.754;3.366;2024-03-02T08:01:16;12.77;;;2.10;;
20480;SDS011;10399;50.754;3.366;2024-03-02T08:03:43;9.88;;;2.28;;
20480;SDS011;10399;50.754;3.366;2024-03-02T08:06:16;10.00;;;2.15;;
20480;SDS011;10399;50.754;3.366;2024-03-02T08:08:44;7.22;;;2.08;;
20480;SDS011;10399;50.754;3.366;2024-03-02T08:11:11;9.43;;;2.45;;
20480;SDS011;10399;50.754;3.366;2024-03-02T08:14:07;7.32;;;1.90;;
20480;SDS011;10399;50.754;3.366;2024-03-02T08:16:34;12.15;;;2.58;;
20480;SDS011;10399;50.754;3.366;2024-03-02T08:19:01;7.20;;;2.20;;
20480;SDS011;10399;50.754;3.366;2024-03-02T08:21:30;8.88;;;2.40;;
20480;SDS011;10399;50.754;3.366;2024-03-02T08:23:58;10.90;;;2.83;;
20480;SDS011;10399;50.754;3.366;2024-03-02T08:26:25;9.57;;;2.40;;
20480;SDS011;10399;50.754;3.366;2024-03-02T08:28:55;10.90;;;2.42;;
20480;SDS011;10399;50.754;3.366;2024-03-02T08:31:22;8.82;;;2.20;;
20480;SDS011;10399;50.754;3.366;2024-03-02T08:33:49;8.95;;;2.22;;
20480;SDS011;10399;50.754;3.366;2024-03-02T08:36:16;10.35;;;2.88;;
20480;SDS011;10399;50.754;3.366;2024-03-02T08:38:44;9.40;;;2.20;;
20480;SDS011;10399;50.754;3.366;2024-03-02T08:41:11;11.13;;;2.10;;
20480;SDS011;10399;50.754;3.366;2024-03-02T08:43:40;6.00;;;1.92;;
20480;SDS011;10399;50.754;3.366;2024-03-02T08:46:08;12.73;;;2.45;;
20480;SDS011;10399;50.754;3.366;2024-03-02T08:48:35;12.85;;;3.03;;
20480;SDS011;10399;50.754;3.366;2024-03-02T08:51:02;10.38;;;2.38;;
20480;SDS011;10399;50.754;3.366;2024-03-02T08:53:32;11.55;;;2.40;;
20480;SDS011;10399;50.754;3.366;2024-03-02T08:55:59;11.07;;;2.50;;
20480;SDS011;10399;50.754;3.366;2024-03-02T08:58:28;10.23;;;2.22;;
20480;SDS011;10399;50.754;3.366;2024-03-02T09:00:55;9.73;;;1.98;;
20480;SDS011;10399;50.754;3.366;2024-03-02T09:03:22;13.45;;;2.25;;
20480;SDS011;10399;50.754;3.366;2024-03-02T09:05:49;7.88;;;2.13;;
20480;SDS011;10399;50.754;3.366;2024-03-02T09:08:16;14.60;;;2.70;;
20480;SDS011;10399;50.754;3.366;2024-03-02T09:10:43;13.82;;;3.10;;
20480;SDS011;10399;50.754;3.366;2024-03-02T09:13:13;12.55;;;2.50;;
20480;SDS011;10399;50.754;3.366;2024-03-02T09:15:40;11.50;;;2.03;;
20480;SDS011;10399;50.754;3.366;2024-03-02T09:18:08;11.10;;;2.55;;
20480;SDS011;10399;50.754;3.366;2024-03-02T09:20:35;7.75;;;2.28;;
20480;SDS011;10399;50.754;3.366;2024-03-02T09:23:02;9.65;;;2.90;;
20480;SDS011;10399;50.754;3.366;2024-03-02T09:25:29;13.05;;;2.03;;
20480;SDS011;10399;50.754;3.366;2024-03-02T09:27:56;10.65;;;2.45;;
20480;SDS011;10399;50.754;3.366;2024-03-02T09:30:23;7.90;;;2.22;;
20480;SDS011;10399;50.754;3.366;2024-03-02T09:32:50;11.77;;;2.05;;
20480;SDS011;10399;50.754;3.366;2024-03-02T09:35:17;19.10;;;2.53;;
20480;SDS011;10399;50.754;3.366;2024-03-02T09:37:44;13.45;;;1.67;;
20480;SDS011;10399;50.754;3.366;2024-03-02T09:40:12;10.88;;;1.67;;
20480;SDS011;10399;50.754;3.366;2024-03-02T09:42:40;16.05;;;3.25;;
20480;SDS011;10399;50.754;3.366;2024-03-02T09:45:08;10.40;;;2.10;;
20480;SDS011;10399;50.754;3.366;2024-03-02T09:47:36;8.50;;;2.40;;
20480;SDS011;10399;50.754;3.366;2024-03-02T09:50:04;10.40;;;1.98;;
20480;SDS011;10399;50.754;3.366;2024-03-02T09:52:32;12.55;;;1.95;;
20480;SDS011;10399;50.754;3.366;2024-03-02T09:54:59;13.73;;;2.15;;
20480;SDS011;10399;50.754;3.366;2024-03-02T09:57:27;8.52;;;2.13;;
20480;SDS011;10399;50.754;3.366;2024-03-02T09:59:54;12.10;;;2.08;;
20480;SDS011;10399;50.754;3.366;2024-03-02T10:02:20;8.13;;;1.65;;
20480;SDS011;10399;50.754;3.366;2024-03-02T10:04:48;9.43;;;1.80;;
20480;SDS011;10399;50.754;3.366;2024-03-02T10:07:16;7.20;;;1.88;;
20480;SDS011;10399;50.754;3.366;2024-03-02T10:09:45;9.02;;;1.77;;
20480;SDS011;10399;50.754;3.366;2024-03-02T10:12:14;13.88;;;2.17;;
20480;SDS011;10399;50.754;3.366;2024-03-02T10:14:43;8.60;;;1.50;;
20480;SDS011;10399;50.754;3.366;2024-03-02T10:17:11;9.73;;;1.98;;
20480;SDS011;10399;50.754;3.366;2024-03-02T10:19:40;11.82;;;1.88;;
20480;SDS011;10399;50.754;3.366;2024-03-02T10:22:08;7.05;;;2.42;;
20480;SDS011;10399;50.754;3.366;2024-03-02T10:27:15;11.10;;;2.35;;
20480;SDS011;10399;50.754;3.366;2024-03-02T10:29:53;13.13;;;2.28;;
20480;SDS011;10399;50.754;3.366;2024-03-02T10:32:22;11.15;;;2.45;;
20480;SDS011;10399;50.754;3.366;2024-03-02T10:34:49;3.97;;;1.23;;
20480;SDS011;10399;50.754;3.366;2024-03-02T10:37:16;7.43;;;1.65;;
20480;SDS011;10399;50.754;3.366;2024-03-02T10:39:45;12.88;;;1.92;;
20480;SDS011;10399;50.754;3.366;2024-03-02T10:42:13;7.32;;;1.83;;
20480;SDS011;10399;50.754;3.366;2024-03-02T10:44:42;11.63;;;2.20;;
20480;SDS011;10399;50.754;3.366;2024-03-02T10:47:09;7.72;;;1.90;;
20480;SDS011;10399;50.754;3.366;2024-03-02T10:49:41;8.02;;;2.13;;
20480;SDS011;10399;50.754;3.366;2024-03-02T10:52:10;6.80;;;1.83;;
20480;SDS011;10399;50.754;3.366;2024-03-02T10:54:37;12.82;;;3.40;;
20480;SDS011;10399;50.754;3.366;2024-03-02T10:57:07;12.52;;;2.20;;
20480;SDS011;10399;50.754;3.366;2024-03-02T10:59:41;9.80;;;2.28;;
20480;SDS011;10399;50.754;3.366;2024-03-02T11:02:18;15.13;;;2.38;;
20480;SDS011;10399;50.754;3.366;2024-03-02T11:04:48;8.32;;;2.47;;
20480;SDS011;10399;50.754;3.366;2024-03-02T11:07:16;10.85;;;2.47;;
20480;SDS011;10399;50.754;3.366;2024-03-02T11:09:52;10.25;;;2.05;;
20480;SDS011;10399;50.754;3.366;2024-03-02T11:12:31;7.20;;;2.00;;
20480;SDS011;10399;50.754;3.366;2024-03-02T11:15:06;9.40;;;1.90;;
20480;SDS011;10399;50.754;3.366;2024-03-02T11:17:39;13.13;;;2.65;;
20480;SDS011;10399;50.754;3.366;2024-03-02T11:20:07;9.02;;;1.90;;
20480;SDS011;10399;50.754;3.366;2024-03-02T11:22:35;8.18;;;2.30;;
20480;SDS011;10399;50.754;3.366;2024-03-02T11:25:03;10.20;;;1.92;;
20480;SDS011;10399;50.754;3.366;2024-03-02T11:33:01;10.15;;;1.65;;
20480;SDS011;10399;50.754;3.366;2024-03-02T11:35:42;10.52;;;1.92;;
20480;SDS011;10399;50.754;3.366;2024-03-02T11:38:15;9.20;;;1.73;;
20480;SDS011;10399;50.754;3.366;2024-03-02T11:40:42;10.40;;;1.77;;
20480;SDS011;10399;50.754;3.366;2024-03-02T11:43:09;5.70;;;1.60;;
20480;SDS011;10399;50.754;3.366;2024-03-02T11:45:37;8.52;;;1.73;;
20480;SDS011;10399;50.754;3.366;2024-03-02T11:48:12;7.75;;;1.95;;
20480;SDS011;10399;50.754;3.366;2024-03-02T11:50:47;10.93;;;2.45;;
20480;SDS011;10399;50.754;3.366;2024-03-02T11:53:17;7.00;;;2.00;;
20480;SDS011;10399;50.754;3.366;2024-03-02T11:55:45;9.55;;;1.88;;
20480;SDS011;10399;50.754;3.366;2024-03-02T11:58:14;5.65;;;1.50;;
20480;SDS011;10399;50.754;3.366;2024-03-02T12:00:47;4.15;;;1.55;;
20480;SDS011;10399;50.754;3.366;2024-03-02T12:03:20;8.65;;;1.50;;
20480;SDS011;10399;50.754;3.366;2024-03-02T12:05:53;9.55;;;1.95;;
20480;SDS011;10399;50.754;3.366;2024-03-02T12:08:21;5.80;;;1.95;;
20480;SDS011;10399;50.754;3.366;2024-03-02T12:10:57;9.60;;;1.73;;
20480;SDS011;10399;50.754;3.366;2024-03-02T12:13:30;5.55;;;1.40;;
20480;SDS011;10399;50.754;3.366;2024-03-02T12:15:57;8.02;;;1.80;;
20480;SDS011;10399;50.754;3.366;2024-03-02T12:18:25;8.43;;;1.70;;
20480;SDS011;10399;50.754;3.366;2024-03-02T12:20:52;6.68;;;1.50;;
20480;SDS011;10399;50.754;3.366;2024-03-02T12:23:24;5.05;;;1.25;;
20480;SDS011;10399;50.754;3.366;2024-03-02T12:25:52;2.22;;;1.42;;
20480;SDS011;10399;50.754;3.366;2024-03-02T12:28:19;6.90;;;1.45;;
20480;SDS011;10399;50.754;3.366;2024-03-02T12:30:46;5.75;;;1.42;;
20480;SDS011;10399;50.754;3.366;2024-03-02T12:33:15;6.63;;;1.35;;
20480;SDS011;10399;50.754;3.366;2024-03-02T12:35:42;6.45;;;1.55;;
20480;SDS011;10399;50.754;3.366;2024-03-02T12:38:09;7.63;;;1.50;;
20480;SDS011;10399;50.754;3.366;2024-03-02T12:40:37;4.07;;;1.48;;
20480;SDS011;10399;50.754;3.366;2024-03-02T12:43:05;7.07;;;1.40;;
20480;SDS011;10399;50.754;3.366;2024-03-02T12:45:33;5.00;;;1.15;;
20480;SDS011;10399;50.754;3.366;2024-03-02T12:48:02;4.32;;;1.10;;
20480;SDS011;10399;50.754;3.366;2024-03-02T12:50:30;2.30;;;1.23;;
20480;SDS011;10399;50.754;3.366;2024-03-02T12:52:58;5.85;;;1.40;;
20480;SDS011;10399;50.754;3.366;2024-03-02T12:55:25;5.35;;;1.50;;
20480;SDS011;10399;50.754;3.366;2024-03-02T12:57:54;6.70;;;1.45;;
20480;SDS011;10399;50.754;3.366;2024-03-02T13:00:21;4.45;;;1.52;;
20480;SDS011;10399;50.754;3.366;2024-03-02T13:02:50;3.33;;;1.30;;
20480;SDS011;10399;50.754;3.366;2024-03-02T13:05:18;6.03;;;1.35;;
20480;SDS011;10399;50.754;3.366;2024-03-02T13:07:47;5.15;;;1.23;;
20480;SDS011;10399;50.754;3.366;2024-03-02T13:10:15;5.13;;;1.50;;
20480;SDS011;10399;50.754;3.366;2024-03-02T13:12:43;6.00;;;1.58;;
20480;SDS011;10399;50.754;3.366;2024-03-02T13:15:10;2.58;;;1.25;;
20480;SDS011;10399;50.754;3.366;2024-03-02T13:17:44;8.32;;;1.65;;
20480;SDS011;10399;50.754;3.366;2024-03-02T13:20:15;4.72;;;1.27;;
20480;SDS011;10399;50.754;3.366;2024-03-02T13:22:44;4.95;;;1.30;;
20480;SDS011;10399;50.754;3.366;2024-03-02T13:25:11;3.55;;;1.30;;
20480;SDS011;10399;50.754;3.366;2024-03-02T13:27:38;4.20;;;1.40;;
20480;SDS011;10399;50.754;3.366;2024-03-02T13:30:06;6.68;;;1.30;;
20480;SDS011;10399;50.754;3.366;2024-03-02T13:32:35;3.58;;;1.25;;
20480;SDS011;10399;50.754;3.366;2024-03-02T13:35:03;4.53;;;1.50;;
20480;SDS011;10399;50.754;3.366;2024-03-02T13:37:30;4.28;;;1.05;;
20480;SDS011;10399;50.754;3.366;2024-03-02T13:39:57;6.15;;;1.50;;
20480;SDS011;10399;50.754;3.366;2024-03-02T13:42:24;8.15;;;1.55;;
20480;SDS011;10399;50.754;3.366;2024-03-02T13:44:52;3.03;;;1.20;;
20480;SDS011;10399;50.754;3.366;2024-03-02T13:47:19;6.55;;;1.50;;
20480;SDS011;10399;50.754;3.366;2024-03-02T13:49:47;5.28;;;1.48;;
20480;SDS011;10399;50.754;3.366;2024-03-02T13:52:15;4.38;;;1.77;;
20480;SDS011;10399;50.754;3.366;2024-03-02T13:54:46;5.95;;;1.38;;
20480;SDS011;10399;50.754;3.366;2024-03-02T13:57:14;7.35;;;1.67;;
20480;SDS011;10399;50.754;3.366;2024-03-02T13:59:42;3.88;;;1.40;;
20480;SDS011;10399;50.754;3.366;2024-03-02T14:02:10;4.95;;;1.58;;
20480;SDS011;10399;50.754;3.366;2024-03-02T14:04:38;6.65;;;1.52;;
20480;SDS011;10399;50.754;3.366;2024-03-02T14:07:06;5.28;;;1.33;;
20480;SDS011;10399;50.754;3.366;2024-03-02T14:09:34;7.53;;;2.25;;
20480;SDS011;10399;50.754;3.366;2024-03-02T14:12:02;6.80;;;1.85;;
20480;SDS011;10399;50.754;3.366;2024-03-02T14:14:30;3.60;;;1.70;;
20480;SDS011;10399;50.754;3.366;2024-03-02T14:16:57;4.57;;;1.85;;
20480;SDS011;10399;50.754;3.366;2024-03-02T14:19:30;4.82;;;1.80;;
20480;SDS011;10399;50.754;3.366;2024-03-02T14:21:57;6.28;;;2.38;;
20480;SDS011;10399;50.754;3.366;2024-03-02T14:24:25;4.70;;;2.25;;
20480;SDS011;10399;50.754;3.366;2024-03-02T14:26:53;6.78;;;2.03;;
20480;SDS011;10399;50.754;3.366;2024-03-02T14:29:31;7.15;;;2.03;;
20480;SDS011;10399;50.754;3.366;2024-03-02T14:32:03;5.57;;;2.00;;
20480;SDS011;10399;50.754;3.366;2024-03-02T14:34:30;5.55;;;1.83;;
20480;SDS011;10399;50.754;3.366;2024-03-02T14:36:57;6.55;;;1.90;;
20480;SDS011;10399;50.754;3.366;2024-03-02T14:39:28;6.15;;;1.40;;
20480;SDS011;10399;50.754;3.366;2024-03-02T14:41:56;5.35;;;1.60;;
20480;SDS011;10399;50.754;3.366;2024-03-02T14:44:23;5.22;;;1.70;;
20480;SDS011;10399;50.754;3.366;2024-03-02T14:46:50;4.63;;;1.85;;
20480;SDS011;10399;50.754;3.366;2024-03-02T14:49:17;5.43;;;1.80;;
20480;SDS011;10399;50.754;3.366;2024-03-02T14:51:58;4.93;;;1.88;;
20480;SDS011;10399;50.754;3.366;2024-03-02T14:54:25;5.55;;;1.77;;
20480;SDS011;10399;50.754;3.366;2024-03-02T14:56:52;6.68;;;2.30;;
20480;SDS011;10399;50.754;3.366;2024-03-02T14:59:19;6.68;;;2.40;;
20480;SDS011;10399;50.754;3.366;2024-03-02T15:01:45;7.45;;;2.45;;
20480;SDS011;10399;50.754;3.366;2024-03-02T15:04:14;9.48;;;2.55;;
20480;SDS011;10399;50.754;3.366;2024-03-02T15:06:47;8.73;;;2.22;;